Terminal Aerodrome Forecast
Issued by NWS Albuquerque, NM

Home | Current Version | Previous Version | Text Only | Print | Product List | Glossary On
Versions: 1 2 3 4 5 6 7 8 9 10 11 12 13 14 15 16 17 18 19
000
FTUS45 KABQ 020539
TAFABQ
TAF
KABQ 020539Z 0206/0306 36006KT P6SM VCTS BKN060CB
      TEMPO 0206/0209 VRB10G20KT -SHRA BKN060
     FM020900 VRB06KT P6SM VCSH BKN090
     FM021500 23009KT P6SM BKN100
     FM030000 VRB15G25KT P6SM VCTS BKN060CB
     FM030300 VRB06KT P6SM VCSH SCT060 BKN100=

USA.gov is the U.S. government's official web portal to all federal, state and local government web resources and services.